createdAt,value
2018-03-09T00:52:58.756Z,14.87
2018-03-09T00:55:27.079Z,18.87
2018-03-09T01:10:32.880Z,15.40
2018-03-09T01:13:01.171Z,13.20
2018-03-09T01:15:29.421Z,15.63
2018-03-09T01:17:57.712Z,14.70
2018-03-09T01:20:26.096Z,12.20
2018-03-09T01:22:54.344Z,13.30
2018-03-09T01:25:23.653Z,13.40
2018-03-09T01:27:52.009Z,9.27
2018-03-09T01:30:20.532Z,10.23
2018-03-09T01:32:48.839Z,8.50
2018-03-09T01:35:17.090Z,7.50
2018-03-09T01:37:45.426Z,10.77
2018-03-09T01:55:44.064Z,7.67
2018-03-09T01:58:12.481Z,8.20
2018-03-09T02:01:07.255Z,8.43
2018-03-09T02:03:35.677Z,6.83
2018-03-09T02:06:04.220Z,8.07
2018-03-09T02:08:33.371Z,8.07
2018-03-09T02:11:02.111Z,9.60
2018-03-09T02:13:31.343Z,8.43
2018-03-09T02:15:59.812Z,10.40
2018-03-09T02:18:28.293Z,9.40
2018-03-09T02:20:56.787Z,10.90
2018-03-09T02:23:25.165Z,10.50
2018-03-09T02:25:54.318Z,12.20
2018-03-09T02:28:23.470Z,10.23
2018-03-09T02:30:51.813Z,9.40
2018-03-09T02:33:20.393Z,13.23
2018-03-09T02:35:48.941Z,12.57
2018-03-09T02:38:17.431Z,11.13
2018-03-09T02:43:57.327Z,13.63
2018-03-09T02:46:25.737Z,13.13
2018-03-09T02:48:54.128Z,13.77
2018-03-09T02:51:22.756Z,11.33
2018-03-09T02:53:51.122Z,13.23
2018-03-09T02:56:19.487Z,11.33
2018-03-09T02:58:47.875Z,13.47
2018-03-09T03:01:17.188Z,12.83
2018-03-09T03:03:45.936Z,11.17
2018-03-09T03:06:15.093Z,11.43
2018-03-09T03:08:43.656Z,12.30
2018-03-09T03:11:38.574Z,14.30
2018-03-09T03:14:07.935Z,11.40
2018-03-09T03:16:36.297Z,12.00
2018-03-09T03:19:04.688Z,10.43
2018-03-09T03:21:33.059Z,14.40
2018-03-09T03:24:01.578Z,10.10
2018-03-09T03:26:30.015Z,11.43
2018-03-09T03:28:58.497Z,9.87
2018-03-09T03:31:27.076Z,9.73
2018-03-09T03:33:55.411Z,9.63
2018-03-09T03:36:23.831Z,10.10
2018-03-09T03:38:52.384Z,5.17
2018-03-09T03:41:20.840Z,9.87
2018-03-09T03:43:49.948Z,10.13
2018-03-09T03:46:18.367Z,8.40
2018-03-09T03:48:46.804Z,7.57
2018-03-09T03:51:15.400Z,9.43
2018-03-09T03:53:43.811Z,9.57
2018-03-09T03:56:12.218Z,6.83
2018-03-09T03:58:41.397Z,8.40
2018-03-09T04:01:17.461Z,6.20
2018-03-09T04:03:46.768Z,5.23
2018-03-09T04:06:16.013Z,5.70
2018-03-09T04:08:44.359Z,7.27
2018-03-09T04:11:12.791Z,6.53
2018-03-09T04:13:41.136Z,6.37
2018-03-09T04:16:09.644Z,9.07
2018-03-09T04:18:37.872Z,7.20
2018-03-09T04:21:06.762Z,4.83
2018-03-09T04:23:36.126Z,9.93
2018-03-09T04:26:04.563Z,9.67
2018-03-09T04:28:33.037Z,11.33
2018-03-09T04:31:01.395Z,7.83
2018-03-09T04:33:29.738Z,9.93
2018-03-09T04:35:59.725Z,10.43
2018-03-09T04:38:28.261Z,11.33
2018-03-09T04:40:57.451Z,12.20
2018-03-09T04:43:26.525Z,13.70
2018-03-09T04:45:55.856Z,11.07
2018-03-09T04:48:25.005Z,11.23
2018-03-09T04:50:53.418Z,7.77
2018-03-09T04:53:22.628Z,12.77
2018-03-09T04:55:51.047Z,11.63
2018-03-09T04:58:19.511Z,13.13
2018-03-09T05:00:47.848Z,13.47
2018-03-09T05:03:17.148Z,13.80
2018-03-09T05:05:45.520Z,11.10
2018-03-09T05:08:13.937Z,9.53
2018-03-09T05:10:42.351Z,10.00
2018-03-09T05:13:11.552Z,11.60
2018-03-09T05:15:39.996Z,16.17
2018-03-09T05:18:08.621Z,11.27
2018-03-09T05:20:37.241Z,13.80
2018-03-09T05:23:05.757Z,13.63
2018-03-09T05:25:34.180Z,11.40
2018-03-09T05:28:02.677Z,8.13
2018-03-09T05:30:31.796Z,12.97
2018-03-09T05:33:00.413Z,10.67
2018-03-09T05:35:28.827Z,10.67
2018-03-09T05:37:57.991Z,9.90
2018-03-09T05:40:26.370Z,10.63
2018-03-09T05:42:54.779Z,9.27
2018-03-09T05:45:23.411Z,9.83
2018-03-09T05:47:51.851Z,9.50
2018-03-09T05:50:20.374Z,10.10
2018-03-09T05:52:48.841Z,8.77
2018-03-09T05:55:17.164Z,7.87
2018-03-09T05:57:45.430Z,8.60
2018-03-09T06:00:13.855Z,8.00
2018-03-09T06:02:42.379Z,9.23
2018-03-09T06:05:10.813Z,6.67
2018-03-09T06:07:39.135Z,4.70
2018-03-09T06:10:07.607Z,7.60
2018-03-09T06:12:36.152Z,7.33
2018-03-09T06:15:04.780Z,7.43
2018-03-09T06:17:34.024Z,7.33
2018-03-09T06:20:02.711Z,6.50
2018-03-09T06:22:31.232Z,6.70
2018-03-09T06:24:59.618Z,5.90
2018-03-09T06:27:28.140Z,7.17
2018-03-09T06:29:57.375Z,5.53
2018-03-09T06:32:25.889Z,7.77
2018-03-09T06:34:54.275Z,7.40
2018-03-09T06:37:22.745Z,7.40
2018-03-09T06:39:51.034Z,7.87
2018-03-09T06:42:20.076Z,7.70
2018-03-09T06:44:48.367Z,8.80
2018-03-09T06:47:16.603Z,8.00
2018-03-09T06:49:44.792Z,7.77
2018-03-09T06:52:13.144Z,6.50
2018-03-09T06:54:42.151Z,5.80
2018-03-09T06:57:10.377Z,5.80
2018-03-09T06:59:38.596Z,5.20
2018-03-09T07:02:06.779Z,4.67
2018-03-09T07:04:34.946Z,5.23
2018-03-09T07:07:03.198Z,6.47
2018-03-09T07:09:32.173Z,5.00
2018-03-09T07:12:00.375Z,4.00
2018-03-09T07:14:29.323Z,4.03
2018-03-09T07:16:57.530Z,4.43
2018-03-09T07:19:26.511Z,4.10
2018-03-09T07:21:55.727Z,3.87
2018-03-09T07:24:24.717Z,4.10
2018-03-09T07:26:52.927Z,4.13
2018-03-09T07:29:21.151Z,3.53
2018-03-09T07:31:50.084Z,4.13
2018-03-09T07:34:18.292Z,4.70
2018-03-09T07:36:46.469Z,3.97
2018-03-09T07:39:14.664Z,4.13
2018-03-09T07:41:42.857Z,4.50
2018-03-09T07:44:11.804Z,3.83
2018-03-09T07:46:40.048Z,3.73
2018-03-09T07:49:08.317Z,4.47
2018-03-09T07:51:37.157Z,3.70
2018-03-09T07:54:05.386Z,3.30
2018-03-09T07:56:33.615Z,3.73
2018-03-09T07:59:01.862Z,4.50
2018-03-09T08:01:30.016Z,5.30
2018-03-09T08:03:58.183Z,5.00
2018-03-09T08:06:29.282Z,4.60
2018-03-09T08:08:58.274Z,5.13
2018-03-09T08:11:27.243Z,5.43
2018-03-09T08:13:55.494Z,4.93
2018-03-09T08:16:23.801Z,4.90
2018-03-09T08:18:52.076Z,3.60
2018-03-09T08:21:20.361Z,7.83
2018-03-09T08:23:48.508Z,6.47
2018-03-09T08:26:16.937Z,4.73
2018-03-09T08:28:45.766Z,5.67
2018-03-09T08:31:14.259Z,6.80
2018-03-09T08:33:42.847Z,7.00
2018-03-09T08:36:11.131Z,6.70
2018-03-09T08:38:39.370Z,6.90
2018-03-09T08:41:07.676Z,5.27
2018-03-09T08:43:35.911Z,6.70
2018-03-09T08:46:04.158Z,6.13
2018-03-09T08:48:33.048Z,6.57
2018-03-09T08:51:01.431Z,5.30
2018-03-09T08:53:29.680Z,6.87
2018-03-09T08:55:58.634Z,6.60
2018-03-09T08:58:26.864Z,7.30
2018-03-09T09:00:55.098Z,6.77
2018-03-09T09:03:23.647Z,6.77
2018-03-09T09:05:51.868Z,7.03
2018-03-09T09:08:20.065Z,7.63
2018-03-09T09:10:48.289Z,9.30
2018-03-09T09:13:16.597Z,8.50
2018-03-09T09:15:44.959Z,8.10
2018-03-09T09:18:13.239Z,9.20
2018-03-09T09:20:41.481Z,9.47
2018-03-09T09:23:09.667Z,10.47
2018-03-09T09:25:38.122Z,8.90
2018-03-09T09:28:06.434Z,8.60
2018-03-09T09:45:07.791Z,7.07
2018-03-09T09:51:07.418Z,8.80
2018-03-09T10:10:22.572Z,8.90
2018-03-09T10:12:50.826Z,9.50
2018-03-09T10:15:19.048Z,8.57
2018-03-09T10:17:47.263Z,7.90
2018-03-09T10:20:15.697Z,9.83
2018-03-09T10:22:44.007Z,11.17
2018-03-09T10:25:12.249Z,10.30
2018-03-09T10:27:41.383Z,10.10
2018-03-09T10:30:09.625Z,8.60
2018-03-09T10:32:38.567Z,11.20
2018-03-09T10:35:06.805Z,7.57
2018-03-09T10:37:35.766Z,9.10
2018-03-09T10:40:03.980Z,9.33
2018-03-09T10:42:32.247Z,10.87
2018-03-09T10:45:01.210Z,9.47
2018-03-09T10:47:29.375Z,8.87
2018-03-09T10:49:57.782Z,8.27
2018-03-09T10:52:26.763Z,8.30
2018-03-09T10:54:55.713Z,9.57
2018-03-09T10:57:23.907Z,10.60
2018-03-09T10:59:52.113Z,10.00
2018-03-09T11:02:21.116Z,9.63
2018-03-09T11:04:49.279Z,9.93
2018-03-09T11:07:18.206Z,10.00
2018-03-09T11:09:46.422Z,9.40
2018-03-09T11:12:14.606Z,8.37
2018-03-09T11:14:43.595Z,8.43
2018-03-09T11:17:11.887Z,8.33
2018-03-09T11:19:40.181Z,8.67
2018-03-09T11:22:08.395Z,9.20
2018-03-09T11:24:36.585Z,9.43
2018-03-09T11:27:06.326Z,7.70
2018-03-09T11:29:35.304Z,10.00
2018-03-09T11:32:04.297Z,9.33
2018-03-09T11:34:33.419Z,9.63
2018-03-09T11:37:02.505Z,9.50
2018-03-09T11:39:30.747Z,9.87
2018-03-09T11:41:58.928Z,9.57
2018-03-09T11:44:27.937Z,7.53
2018-03-09T11:46:56.145Z,8.30
2018-03-09T11:49:24.369Z,8.07
2018-03-09T11:51:53.402Z,7.93
2018-03-09T11:54:21.634Z,7.13
2018-03-09T11:56:50.570Z,9.13
2018-03-09T11:59:18.825Z,8.40
2018-03-09T12:01:47.079Z,7.13
2018-03-09T12:04:16.049Z,7.40
2018-03-09T12:06:44.272Z,9.07
2018-03-09T12:09:12.553Z,7.57
2018-03-09T12:11:40.798Z,7.83
2018-03-09T12:14:09.748Z,8.83
2018-03-09T12:16:37.940Z,6.53
2018-03-09T12:19:06.208Z,8.50
2018-03-09T12:21:34.419Z,5.37
2018-03-09T12:24:03.470Z,7.30
2018-03-09T12:26:32.475Z,8.40
2018-03-09T12:29:00.859Z,7.87
2018-03-09T12:31:29.184Z,6.20
2018-03-09T12:33:57.437Z,8.00
2018-03-09T12:36:25.682Z,8.23
2018-03-09T12:38:53.910Z,7.80
2018-03-09T12:41:22.546Z,6.73
2018-03-09T12:43:50.706Z,9.07
2018-03-09T12:46:19.050Z,6.60
2018-03-09T12:48:47.249Z,7.70
2018-03-09T12:51:15.483Z,8.07
2018-03-09T12:53:43.763Z,7.43
2018-03-09T12:56:12.091Z,6.13
2018-03-09T12:58:40.463Z,4.33
2018-03-09T13:01:08.671Z,8.90
2018-03-09T13:03:37.822Z,6.57
2018-03-09T13:06:06.123Z,6.63
2018-03-09T13:08:35.053Z,6.40
2018-03-09T13:11:03.338Z,6.90
2018-03-09T13:13:31.487Z,6.60
2018-03-09T13:15:59.845Z,6.87
2018-03-09T13:18:34.704Z,5.63
2018-03-09T13:21:02.890Z,6.67
2018-03-09T13:23:31.059Z,5.00
2018-03-09T13:25:59.255Z,5.60
2018-03-09T13:28:27.436Z,7.00
2018-03-09T13:30:55.625Z,5.90
2018-03-09T13:33:23.858Z,6.93
2018-03-09T13:35:52.106Z,6.73
2018-03-09T13:38:20.422Z,6.70
2018-03-09T13:40:48.700Z,7.17
2018-03-09T13:43:16.906Z,7.67
2018-03-09T13:45:45.390Z,7.90
2018-03-09T13:48:15.236Z,5.60
2018-03-09T13:50:43.531Z,6.90
2018-03-09T13:53:11.730Z,7.50
2018-03-09T13:55:39.987Z,7.30
2018-03-09T13:58:08.217Z,7.80
2018-03-09T14:00:37.138Z,7.93
2018-03-09T14:03:05.394Z,9.00
2018-03-09T14:05:33.539Z,7.20
2018-03-09T14:08:02.522Z,8.37
2018-03-09T14:10:30.742Z,8.10
2018-03-09T14:12:58.923Z,8.80
2018-03-09T14:15:27.111Z,8.23
2018-03-09T14:17:55.321Z,8.60
2018-03-09T14:20:23.526Z,8.80
2018-03-09T14:22:51.714Z,9.30
2018-03-09T14:25:19.900Z,9.47
2018-03-09T14:27:48.073Z,9.37
2018-03-09T14:30:16.363Z,7.57
2018-03-09T14:32:44.563Z,8.27
2018-03-09T14:35:13.539Z,9.10
2018-03-09T14:37:41.839Z,11.47
2018-03-09T14:40:10.849Z,8.83
2018-03-09T14:42:39.062Z,8.30
2018-03-09T14:45:08.162Z,8.47
2018-03-09T14:47:36.344Z,9.53
2018-03-09T14:50:04.510Z,9.17
2018-03-09T14:52:32.754Z,8.67
2018-03-09T14:55:00.930Z,10.43
2018-03-09T14:57:29.178Z,8.73
2018-03-09T14:59:57.373Z,8.53
2018-03-09T15:02:25.562Z,9.80
2018-03-09T15:04:53.770Z,8.70
2018-03-09T15:07:24.335Z,9.33
2018-03-09T15:09:52.578Z,9.60
2018-03-09T15:12:20.746Z,9.30
2018-03-09T15:14:48.939Z,8.77
2018-03-09T15:17:17.898Z,9.53
2018-03-09T15:19:46.159Z,9.37
2018-03-09T15:22:14.338Z,8.73
2018-03-09T15:24:42.556Z,7.83
2018-03-09T15:27:11.619Z,8.80
2018-03-09T15:29:39.872Z,9.80
2018-03-09T15:32:08.103Z,9.03
2018-03-09T15:34:36.296Z,8.87
2018-03-09T15:37:04.517Z,9.10
2018-03-09T15:39:32.702Z,9.53
2018-03-09T15:42:00.924Z,9.13
2018-03-09T15:44:29.143Z,8.23
2018-03-09T15:46:57.321Z,8.90
2018-03-09T15:49:26.314Z,8.70
2018-03-09T15:51:54.521Z,9.67
2018-03-09T15:54:22.745Z,7.13
2018-03-09T15:56:51.014Z,9.73
2018-03-09T15:59:19.242Z,7.73
2018-03-09T16:01:47.441Z,10.20
2018-03-09T16:04:15.629Z,9.93
2018-03-09T16:06:43.857Z,10.57
2018-03-09T16:09:12.068Z,11.50
2018-03-09T16:11:40.249Z,10.70
2018-03-09T16:14:08.486Z,11.13
2018-03-09T16:16:36.672Z,11.07
2018-03-09T16:19:04.864Z,10.03
2018-03-09T16:21:34.196Z,11.50
2018-03-09T16:24:02.532Z,11.50
2018-03-09T16:26:30.843Z,10.90
2018-03-09T16:28:59.318Z,10.93
2018-03-09T16:31:27.712Z,10.57
2018-03-09T16:33:56.196Z,10.77
2018-03-09T16:36:25.405Z,10.50
2018-03-09T16:38:53.731Z,9.83
2018-03-09T16:41:22.087Z,10.87
2018-03-09T16:43:50.371Z,10.97
2018-03-09T16:46:18.700Z,9.87
2018-03-09T16:48:47.787Z,10.20
2018-03-09T16:51:16.858Z,9.53
2018-03-09T16:53:45.169Z,10.27
2018-03-09T16:56:16.158Z,10.47
2018-03-09T16:58:44.827Z,9.87
2018-03-09T17:01:13.183Z,10.27
2018-03-09T17:03:42.284Z,10.73
2018-03-09T17:06:10.835Z,9.80
2018-03-09T17:08:39.548Z,9.93
2018-03-09T17:11:08.191Z,10.20
2018-03-09T17:13:36.535Z,12.10
2018-03-09T17:16:04.999Z,12.10
2018-03-09T17:18:33.817Z,11.30
2018-03-09T17:21:02.536Z,12.17
2018-03-09T17:23:30.740Z,13.33
2018-03-09T17:25:58.951Z,11.90
2018-03-09T17:28:27.224Z,12.50
2018-03-09T17:30:55.536Z,13.20
2018-03-09T17:33:23.850Z,15.53
2018-03-09T17:35:52.210Z,14.53
2018-03-09T17:38:20.402Z,13.50
2018-03-09T17:40:48.607Z,14.53
2018-03-09T17:43:16.810Z,15.87
2018-03-09T17:45:45.150Z,16.37
2018-03-09T17:48:13.407Z,14.30
2018-03-09T17:50:41.701Z,14.17
2018-03-09T17:53:10.736Z,15.87
2018-03-09T17:55:39.694Z,14.70
2018-03-09T17:58:07.909Z,19.00
2018-03-09T18:00:36.992Z,13.83
2018-03-09T18:03:05.174Z,14.27
2018-03-09T18:05:34.129Z,14.50
2018-03-09T18:08:08.737Z,13.57
2018-03-09T18:10:52.199Z,14.53
2018-03-09T18:13:36.680Z,15.27
2018-03-09T18:16:12.237Z,13.83
2018-03-09T18:18:47.467Z,16.00
2018-03-09T18:24:20.034Z,15.73
2018-03-09T18:26:48.284Z,14.60
2018-03-09T18:29:16.613Z,13.10
2018-03-09T18:31:45.606Z,14.33
2018-03-09T18:34:13.888Z,14.60
2018-03-09T18:36:42.078Z,14.57
2018-03-09T18:39:10.501Z,14.43
2018-03-09T18:54:11.313Z,14.30
2018-03-09T19:08:07.998Z,14.50
2018-03-09T19:10:36.290Z,14.77
2018-03-09T19:13:04.757Z,15.47
2018-03-09T19:15:33.139Z,16.03
2018-03-09T19:18:01.315Z,15.30
2018-03-09T19:20:29.477Z,17.17
2018-03-09T19:22:57.754Z,18.70
2018-03-09T19:25:26.014Z,16.97
2018-03-09T19:27:54.274Z,16.20
2018-03-09T19:30:22.458Z,18.10
2018-03-09T19:32:50.685Z,18.17
2018-03-09T19:35:18.919Z,18.40
2018-03-09T19:37:47.122Z,17.63
2018-03-09T19:40:15.342Z,19.13
2018-03-09T19:42:43.552Z,19.77
2018-03-09T19:45:12.811Z,19.80
2018-03-09T19:47:41.784Z,20.20
2018-03-09T19:50:11.483Z,18.33
2018-03-09T19:52:40.464Z,20.20
2018-03-09T19:55:08.647Z,20.30
2018-03-09T19:57:36.912Z,19.70
2018-03-09T20:00:05.119Z,22.00
2018-03-09T20:02:34.234Z,24.70
2018-03-09T20:05:02.783Z,23.00
2018-03-09T20:07:31.149Z,25.60
2018-03-09T20:09:59.514Z,30.77
2018-03-09T20:12:27.717Z,29.90
2018-03-09T20:14:56.041Z,28.57
2018-03-09T20:17:24.280Z,27.17
2018-03-09T20:19:52.720Z,25.07
2018-03-09T20:22:21.052Z,26.47
2018-03-09T20:24:49.220Z,26.87
2018-03-09T20:27:17.493Z,26.80
2018-03-09T20:29:45.685Z,27.87
2018-03-09T20:32:13.932Z,26.10
2018-03-09T20:34:42.159Z,26.77
2018-03-09T20:37:10.403Z,26.73
2018-03-09T20:39:38.676Z,27.70
2018-03-09T20:42:07.571Z,26.73
2018-03-09T20:44:35.860Z,27.80
2018-03-09T20:47:04.113Z,26.43
2018-03-09T20:49:32.342Z,26.77
2018-03-09T20:52:00.548Z,25.80
2018-03-09T20:54:28.804Z,27.80
2018-03-09T20:56:57.003Z,25.70
2018-03-09T20:59:25.209Z,26.17
2018-03-09T21:01:53.473Z,25.83
2018-03-09T21:04:21.814Z,25.57
2018-03-09T21:06:50.792Z,26.67
2018-03-09T21:09:19.752Z,27.07
2018-03-09T21:11:47.964Z,26.80
2018-03-09T21:14:17.014Z,28.63
2018-03-09T21:16:45.226Z,26.70
2018-03-09T21:19:13.556Z,25.57
2018-03-09T21:21:41.801Z,27.60
2018-03-09T21:24:10.210Z,25.70
2018-03-09T21:26:38.555Z,28.40
2018-03-09T21:29:06.747Z,27.83
2018-03-09T21:31:34.946Z,27.03
2018-03-09T21:34:03.207Z,27.00
2018-03-09T21:36:31.547Z,25.40
2018-03-09T21:38:59.782Z,26.83
2018-03-09T21:41:27.985Z,24.53
2018-03-09T21:43:56.333Z,25.30
2018-03-09T21:46:24.569Z,26.10
2018-03-09T21:48:52.927Z,25.30
2018-03-09T21:51:21.923Z,26.03
2018-03-09T21:53:50.127Z,26.20
2018-03-09T21:56:18.424Z,26.67
2018-03-09T21:58:46.630Z,26.57
2018-03-09T22:01:15.650Z,29.00
2018-03-09T22:03:43.964Z,27.73
2018-03-09T22:06:12.259Z,29.13
2018-03-09T22:08:40.542Z,30.50
2018-03-09T22:11:08.752Z,29.80
2018-03-09T22:13:36.990Z,29.77
2018-03-09T22:16:05.201Z,29.23
2018-03-09T22:18:33.436Z,28.03
2018-03-09T22:21:01.650Z,29.57
2018-03-09T22:23:29.856Z,27.93
2018-03-09T22:25:58.058Z,27.00
2018-03-09T22:28:27.178Z,27.80
2018-03-09T22:30:55.447Z,27.57
2018-03-09T22:33:24.476Z,28.37
2018-03-09T22:35:52.716Z,26.97
2018-03-09T22:38:20.902Z,27.60
2018-03-09T22:40:49.156Z,29.83
2018-03-09T22:43:18.135Z,30.43
2018-03-09T22:45:47.099Z,29.30
2018-03-09T22:48:15.313Z,29.67
2018-03-09T22:50:44.295Z,31.33
2018-03-09T22:53:12.514Z,30.93
2018-03-09T22:55:40.714Z,29.20
2018-03-09T22:58:08.908Z,31.07
2018-03-09T23:00:38.091Z,29.80
2018-03-09T23:03:06.372Z,31.60
2018-03-09T23:05:34.780Z,33.03
2018-03-09T23:08:03.004Z,32.60
2018-03-09T23:10:31.223Z,30.67
2018-03-09T23:13:00.328Z,29.43
2018-03-09T23:15:28.503Z,30.67
2018-03-09T23:17:56.917Z,30.60
2018-03-09T23:20:25.132Z,28.23
2018-03-09T23:22:54.116Z,30.47
2018-03-09T23:25:22.323Z,29.37
2018-03-09T23:27:50.654Z,32.13
2018-03-09T23:30:18.952Z,32.10
2018-03-09T23:32:47.239Z,30.40
2018-03-09T23:35:15.590Z,30.53
2018-03-09T23:37:43.789Z,31.20
2018-03-09T23:40:12.879Z,29.50
2018-03-09T23:42:42.039Z,30.33
2018-03-09T23:45:10.227Z,30.20
2018-03-09T23:47:38.482Z,30.93
2018-03-09T23:50:06.674Z,29.50
2018-03-09T23:52:34.862Z,29.37
2018-03-09T23:55:03.795Z,30.67
2018-03-09T23:57:31.982Z,30.70
